AirNav   Duncan Aviation - Near you to keep you flying
 
 993 users online  

7IS3 Hooterville Airport
Clinton, Illinois, USA

GOING TO CLINTON?


FAA INFORMATION EFFECTIVE 01 DECEMBER 2022

Location

FAA Identifier: 7IS3
Lat/Long: 40-08-36.1380N 089-05-30.3070W
40-08.602300N 089-05.505117W
40.1433717,-89.0917519
(estimated)
Elevation: 730 ft. / 223 m (estimated)
Variation: 01E (1985)
From city: 6 miles W of CLINTON, IL
Time zone: UTC -6 (UTC -5 during Daylight Saving Time)
Zip code: 61727

Airport Operations

Airport use: Private use. Permission required prior to landing
Activation date: 11/1985
Control tower: no
ARTCC: CHICAGO CENTER
FSS: SAINT LOUIS FLIGHT SERVICE STATION
Attendance: IREG IREG
Wind indicator: yes
Segmented circle: yes
Lights: ACTVT LIRL RY 18/36 - 122.8.
Beacon: white-green (lighted land airport)
PPR FOR ROTG BCN; CALL AMGR 217-935-6173. Operates sunset to sunrise.

Airport Communications

UNICOM: 122.8
WX AWOS-3 at AAA (11 nm W): 118.775 (217-732-9605)

Nearby radio navigation aids

VOR radial/distance  VOR name  Freq  Var
BMIr197/21.5BLOOMINGTON VOR/DME108.2003E
AXCr333/26.6ADDERS VORTAC117.2003E
SPIr057/32.5SPINNER VORTAC112.7001W
CMIr277/38.0CHAMPAIGN VORTAC110.0003E

 
NDB name  Hdg/Dist  Freq  Var  ID
ABRAHAM095/11.332900EAAA .- .- .-

Airport Services

Fuel available: 100LL

Runway Information

Runway 18/36

Dimensions: 2300 x 102 ft. / 701 x 31 m
Surface: turf
Runway edge lights: low intensity
RUNWAY 18  RUNWAY 36
Traffic pattern: leftleft
Obstructions: 100 ft. silo, 1600 ft. from runway30 ft. trees, 1000 ft. from runway

Airport Ownership and Management from official FAA records

Ownership: Privately-owned
Owner: JOHN WARNER, IV
6312 RED RD.
KENNEY, IL 61749
Phone 217-935-3641
Manager: JOHN WARNER, IV
6312 RED RD.
KENNEY, IL 61749
Phone 217-935-6173

Airport Operational Statistics

Aircraft based on the field: 2
Single engine airplanes: 2
    

Additional Remarks

TIE-DOWN FACS FOR 3 ACFT. A LCL A&P MECHANIC AVBL FOR ACFT RPRS.
FOR CD CTC CHAMPAIGN APCH AT 217-355-4069, WHEN APCH CLSD CTC CHICAGO ARTCC AT 630-906-8921

Instrument Procedures

There are no published instrument procedures at 7IS3.

Some nearby airports with instrument procedures:

KAAA - Logan County Airport (11 nm W)
KDEC - Decatur Airport (21 nm SE)
KBMI - Central Illinois Regional Airport/Bloomington-Normal (22 nm N)
KSPI - Abraham Lincoln Capital Airport (32 nm SW)
C15 - Pekin Municipal Airport (34 nm NW)
 
Loc | Ops | Rwys | IFR | FBO | Links
Com | Nav | Svcs | Stats | Notes
Area around 7IS3 (Hooterville Airport)
 
Road maps at: MapQuest Bing Google
 
Aerial photo
No photo
 
Sectional chart

 
Airport distance calculator
Flying to Hooterville Airport? Find the distance to fly.

From to 7IS3

Sunrise and sunset
Times for 04-Dec-2022
 Local
(UTC-6)
 Zulu
(UTC)
Morning civil twilight06:3312:33
Sunrise07:0313:03
Sunset16:3022:30
Evening civil twilight17:0023:00

Current date and time
Zulu (UTC)  05-Dec-2022 01:48:39
Local (UTC-6)  04-Dec-2022 19:48:39
 
METAR
KAAA 
11nm W 
050135Z AUTO 19004KT 10SM CLR 00/M05 A3009 RMK AO2 T10051053
KBMI 
21nm N 
050056Z 20009KT 10SM CLR M03/M07 A3009 RMK AO2 SLP200 T10331067
KDEC 
22nm SE 
050054Z 20007KT 10SM CLR 00/M07 A3012 RMK AO2 SLP208 T00001067
TAF
KBMI 
21nm N 
042300Z 0423/0518 20008KT P6SM SCT250 FM050900 19008KT P6SM SCT150 BKN250 FM051500 19012KT P6SM BKN150
KDEC 
22nm SE 
042301Z 0423/0518 18006KT P6SM SCT250 FM050800 18006KT P6SM SCT120 BKN200 FM051400 19009KT P6SM BKN120
NOTAMs
Click for the latest NOTAMs
NOTAMs are issued by the DoD/FAA and will open in a separate window not controlled by AirNav.

 

 
 

Would you like to see your business listed on this page?

 If your business provides an interesting product or service to pilots, flight crews, aircraft, or users of the Hooterville Airport, you should consider listing it here.  To start the listing process, click on the button below
 
Add a business
 

Other Pages about Hooterville Airport

Update a link
 
Copyright © AirNav, LLC. All rights reserved. Privacy Policy  Contact